sensor_id;sensor_type;location;lat;lon;timestamp;P1;durP1;ratioP1;P2;durP2;ratioP2
42246;SDS011;27913;42.722;23.268;2023-05-13T00:04:09;1.13;;;0.60;;
42246;SDS011;27913;42.722;23.268;2023-05-13T00:06:36;1.15;;;0.70;;
42246;SDS011;27913;42.722;23.268;2023-05-13T00:09:02;0.93;;;0.70;;
42246;SDS011;27913;42.722;23.268;2023-05-13T00:11:28;1.17;;;0.68;;
42246;SDS011;27913;42.722;23.268;2023-05-13T00:13:54;0.88;;;0.52;;
42246;SDS011;27913;42.722;23.268;2023-05-13T00:16:19;1.10;;;0.70;;
42246;SDS011;27913;42.722;23.268;2023-05-13T00:18:48;0.80;;;0.60;;
42246;SDS011;27913;42.722;23.268;2023-05-13T00:21:13;1.52;;;0.80;;
42246;SDS011;27913;42.722;23.268;2023-05-13T00:23:39;1.73;;;0.80;;
42246;SDS011;27913;42.722;23.268;2023-05-13T00:26:04;0.77;;;0.55;;
42246;SDS011;27913;42.722;23.268;2023-05-13T00:28:30;2.40;;;0.85;;
42246;SDS011;27913;42.722;23.268;2023-05-13T00:30:55;0.82;;;0.50;;
42246;SDS011;27913;42.722;23.268;2023-05-13T00:33:21;1.20;;;0.80;;
42246;SDS011;27913;42.722;23.268;2023-05-13T00:35:46;1.70;;;1.02;;
42246;SDS011;27913;42.722;23.268;2023-05-13T00:38:12;1.30;;;0.73;;
42246;SDS011;27913;42.722;23.268;2023-05-13T00:40:37;0.50;;;0.43;;
42246;SDS011;27913;42.722;23.268;2023-05-13T00:43:04;0.75;;;0.60;;
42246;SDS011;27913;42.722;23.268;2023-05-13T00:45:30;1.75;;;0.82;;
42246;SDS011;27913;42.722;23.268;2023-05-13T00:47:55;1.40;;;0.73;;
42246;SDS011;27913;42.722;23.268;2023-05-13T00:50:23;1.92;;;1.10;;
42246;SDS011;27913;42.722;23.268;2023-05-13T00:52:48;0.75;;;0.47;;
42246;SDS011;27913;42.722;23.268;2023-05-13T00:55:15;6.22;;;0.98;;
42246;SDS011;27913;42.722;23.268;2023-05-13T00:57:40;2.03;;;0.85;;
42246;SDS011;27913;42.722;23.268;2023-05-13T01:00:06;0.82;;;0.65;;
42246;SDS011;27913;42.722;23.268;2023-05-13T01:02:34;0.95;;;0.50;;
42246;SDS011;27913;42.722;23.268;2023-05-13T01:05:28;0.98;;;0.60;;
42246;SDS011;27913;42.722;23.268;2023-05-13T01:10:56;1.35;;;0.73;;
42246;SDS011;27913;42.722;23.268;2023-05-13T01:13:27;1.02;;;0.60;;
42246;SDS011;27913;42.722;23.268;2023-05-13T01:16:38;0.60;;;0.47;;
42246;SDS011;27913;42.722;23.268;2023-05-13T01:18:52;2.83;;;0.88;;
42246;SDS011;27913;42.722;23.268;2023-05-13T01:21:26;0.80;;;0.50;;
42246;SDS011;27913;42.722;23.268;2023-05-13T01:23:52;1.20;;;0.60;;
42246;SDS011;27913;42.722;23.268;2023-05-13T01:26:18;0.60;;;0.40;;
42246;SDS011;27913;42.722;23.268;2023-05-13T01:28:45;1.00;;;0.40;;
42246;SDS011;27913;42.722;23.268;2023-05-13T01:31:11;1.60;;;0.80;;
42246;SDS011;27913;42.722;23.268;2023-05-13T01:33:39;1.45;;;0.70;;
42246;SDS011;27913;42.722;23.268;2023-05-13T01:36:06;0.95;;;0.60;;
42246;SDS011;27913;42.722;23.268;2023-05-13T01:38:32;0.68;;;0.40;;
42246;SDS011;27913;42.722;23.268;2023-05-13T01:40:59;0.77;;;0.40;;
42246;SDS011;27913;42.722;23.268;2023-05-13T01:43:25;1.30;;;0.93;;
42246;SDS011;27913;42.722;23.268;2023-05-13T01:45:51;0.93;;;0.50;;
42246;SDS011;27913;42.722;23.268;2023-05-13T01:48:16;1.40;;;0.50;;
42246;SDS011;27913;42.722;23.268;2023-05-13T01:50:43;0.90;;;0.60;;
42246;SDS011;27913;42.722;23.268;2023-05-13T01:53:08;1.45;;;0.77;;
42246;SDS011;27913;42.722;23.268;2023-05-13T01:55:34;3.67;;;1.70;;
42246;SDS011;27913;42.722;23.268;2023-05-13T01:57:59;2.03;;;1.30;;
42246;SDS011;27913;42.722;23.268;2023-05-13T02:00:25;1.63;;;0.85;;
42246;SDS011;27913;42.722;23.268;2023-05-13T02:02:51;2.38;;;1.10;;
42246;SDS011;27913;42.722;23.268;2023-05-13T02:05:16;1.92;;;0.80;;
42246;SDS011;27913;42.722;23.268;2023-05-13T02:07:41;3.05;;;1.30;;
42246;SDS011;27913;42.722;23.268;2023-05-13T02:10:07;2.15;;;1.20;;
42246;SDS011;27913;42.722;23.268;2023-05-13T02:12:33;1.80;;;1.13;;
42246;SDS011;27913;42.722;23.268;2023-05-13T02:14:58;2.30;;;1.20;;
42246;SDS011;27913;42.722;23.268;2023-05-13T02:17:25;1.92;;;1.30;;
42246;SDS011;27913;42.722;23.268;2023-05-13T02:19:50;2.35;;;1.25;;
42246;SDS011;27913;42.722;23.268;2023-05-13T02:22:16;3.05;;;1.48;;
42246;SDS011;27913;42.722;23.268;2023-05-13T02:24:41;1.80;;;1.10;;
42246;SDS011;27913;42.722;23.268;2023-05-13T02:27:07;1.58;;;1.15;;
42246;SDS011;27913;42.722;23.268;2023-05-13T02:29:33;1.48;;;0.90;;
42246;SDS011;27913;42.722;23.268;2023-05-13T02:31:58;2.78;;;1.45;;
42246;SDS011;27913;42.722;23.268;2023-05-13T02:34:24;3.35;;;1.50;;
42246;SDS011;27913;42.722;23.268;2023-05-13T02:36:51;3.03;;;1.73;;
42246;SDS011;27913;42.722;23.268;2023-05-13T02:39:16;2.25;;;1.38;;
42246;SDS011;27913;42.722;23.268;2023-05-13T02:41:42;2.53;;;1.58;;
42246;SDS011;27913;42.722;23.268;2023-05-13T02:44:08;1.98;;;1.27;;
42246;SDS011;27913;42.722;23.268;2023-05-13T02:46:34;5.78;;;2.22;;
42246;SDS011;27913;42.722;23.268;2023-05-13T02:49:00;8.02;;;1.85;;
42246;SDS011;27913;42.722;23.268;2023-05-13T02:51:26;2.38;;;1.35;;
42246;SDS011;27913;42.722;23.268;2023-05-13T02:53:52;3.20;;;1.75;;
42246;SDS011;27913;42.722;23.268;2023-05-13T02:56:17;3.20;;;1.95;;
42246;SDS011;27913;42.722;23.268;2023-05-13T02:58:43;3.60;;;1.80;;
42246;SDS011;27913;42.722;23.268;2023-05-13T03:01:08;2.03;;;1.33;;
42246;SDS011;27913;42.722;23.268;2023-05-13T03:03:34;2.47;;;1.52;;
42246;SDS011;27913;42.722;23.268;2023-05-13T03:05:59;2.70;;;1.30;;
42246;SDS011;27913;42.722;23.268;2023-05-13T03:08:25;3.55;;;1.90;;
42246;SDS011;27913;42.722;23.268;2023-05-13T03:10:50;3.08;;;1.80;;
42246;SDS011;27913;42.722;23.268;2023-05-13T03:13:16;2.40;;;1.52;;
42246;SDS011;27913;42.722;23.268;2023-05-13T03:15:42;2.10;;;1.40;;
42246;SDS011;27913;42.722;23.268;2023-05-13T03:18:07;1.85;;;1.05;;
42246;SDS011;27913;42.722;23.268;2023-05-13T03:20:33;1.90;;;1.27;;
42246;SDS011;27913;42.722;23.268;2023-05-13T03:22:58;4.28;;;2.15;;
42246;SDS011;27913;42.722;23.268;2023-05-13T03:25:24;1.98;;;1.25;;
42246;SDS011;27913;42.722;23.268;2023-05-13T03:27:51;2.95;;;1.83;;
42246;SDS011;27913;42.722;23.268;2023-05-13T03:30:18;3.38;;;2.08;;
42246;SDS011;27913;42.722;23.268;2023-05-13T03:32:43;2.25;;;1.45;;
42246;SDS011;27913;42.722;23.268;2023-05-13T03:35:09;4.63;;;2.20;;
42246;SDS011;27913;42.722;23.268;2023-05-13T03:37:34;3.65;;;2.10;;
42246;SDS011;27913;42.722;23.268;2023-05-13T03:40:00;4.03;;;2.42;;
42246;SDS011;27913;42.722;23.268;2023-05-13T03:42:25;6.10;;;2.25;;
42246;SDS011;27913;42.722;23.268;2023-05-13T03:44:51;3.80;;;2.42;;
42246;SDS011;27913;42.722;23.268;2023-05-13T03:47:17;3.50;;;2.13;;
42246;SDS011;27913;42.722;23.268;2023-05-13T03:49:42;5.18;;;2.80;;
42246;SDS011;27913;42.722;23.268;2023-05-13T03:52:08;4.93;;;2.65;;
42246;SDS011;27913;42.722;23.268;2023-05-13T03:54:33;8.18;;;1.75;;
42246;SDS011;27913;42.722;23.268;2023-05-13T03:56:59;2.15;;;1.30;;
42246;SDS011;27913;42.722;23.268;2023-05-13T03:59:25;2.50;;;1.52;;
42246;SDS011;27913;42.722;23.268;2023-05-13T04:01:50;1.80;;;1.13;;
42246;SDS011;27913;42.722;23.268;2023-05-13T04:04:16;4.05;;;2.00;;
42246;SDS011;27913;42.722;23.268;2023-05-13T04:06:42;3.03;;;1.73;;
42246;SDS011;27913;42.722;23.268;2023-05-13T04:09:07;2.13;;;1.20;;
42246;SDS011;27913;42.722;23.268;2023-05-13T04:11:33;2.30;;;1.30;;
42246;SDS011;27913;42.722;23.268;2023-05-13T04:13:58;2.30;;;1.27;;
42246;SDS011;27913;42.722;23.268;2023-05-13T04:16:24;2.22;;;1.23;;
42246;SDS011;27913;42.722;23.268;2023-05-13T04:18:49;3.10;;;1.60;;
42246;SDS011;27913;42.722;23.268;2023-05-13T04:21:15;2.50;;;1.33;;
42246;SDS011;27913;42.722;23.268;2023-05-13T04:23:40;1.67;;;1.25;;
42246;SDS011;27913;42.722;23.268;2023-05-13T04:26:06;2.45;;;1.40;;
42246;SDS011;27913;42.722;23.268;2023-05-13T04:28:32;2.92;;;1.58;;
42246;SDS011;27913;42.722;23.268;2023-05-13T04:30:58;2.92;;;1.60;;
42246;SDS011;27913;42.722;23.268;2023-05-13T04:33:24;2.75;;;1.65;;
42246;SDS011;27913;42.722;23.268;2023-05-13T04:35:50;3.60;;;1.60;;
42246;SDS011;27913;42.722;23.268;2023-05-13T04:38:17;2.42;;;1.33;;
42246;SDS011;27913;42.722;23.268;2023-05-13T04:40:43;2.17;;;1.40;;
42246;SDS011;27913;42.722;23.268;2023-05-13T04:43:09;5.10;;;1.25;;
42246;SDS011;27913;42.722;23.268;2023-05-13T04:45:35;2.72;;;1.25;;
42246;SDS011;27913;42.722;23.268;2023-05-13T04:48:02;1.75;;;1.23;;
42246;SDS011;27913;42.722;23.268;2023-05-13T04:50:27;1.80;;;1.08;;
42246;SDS011;27913;42.722;23.268;2023-05-13T04:52:53;3.83;;;1.77;;
42246;SDS011;27913;42.722;23.268;2023-05-13T04:55:20;2.83;;;1.48;;
42246;SDS011;27913;42.722;23.268;2023-05-13T04:57:46;2.42;;;1.45;;
42246;SDS011;27913;42.722;23.268;2023-05-13T05:00:11;6.00;;;1.50;;
42246;SDS011;27913;42.722;23.268;2023-05-13T05:02:37;3.55;;;1.83;;
42246;SDS011;27913;42.722;23.268;2023-05-13T05:05:03;2.72;;;1.50;;
42246;SDS011;27913;42.722;23.268;2023-05-13T05:07:29;2.17;;;1.20;;
42246;SDS011;27913;42.722;23.268;2023-05-13T05:09:54;1.17;;;0.73;;
42246;SDS011;27913;42.722;23.268;2023-05-13T05:12:20;2.08;;;1.20;;
42246;SDS011;27913;42.722;23.268;2023-05-13T05:14:45;1.40;;;0.90;;
42246;SDS011;27913;42.722;23.268;2023-05-13T05:17:11;2.33;;;1.38;;
42246;SDS011;27913;42.722;23.268;2023-05-13T05:19:36;2.17;;;1.27;;
42246;SDS011;27913;42.722;23.268;2023-05-13T05:22:02;3.03;;;1.60;;
42246;SDS011;27913;42.722;23.268;2023-05-13T05:24:27;1.55;;;0.95;;
42246;SDS011;27913;42.722;23.268;2023-05-13T05:26:53;3.05;;;1.08;;
42246;SDS011;27913;42.722;23.268;2023-05-13T05:29:18;2.25;;;1.05;;
42246;SDS011;27913;42.722;23.268;2023-05-13T05:31:44;1.55;;;1.00;;
42246;SDS011;27913;42.722;23.268;2023-05-13T05:34:10;6.00;;;1.15;;
42246;SDS011;27913;42.722;23.268;2023-05-13T05:36:36;2.05;;;1.17;;
42246;SDS011;27913;42.722;23.268;2023-05-13T05:39:01;2.38;;;1.30;;
42246;SDS011;27913;42.722;23.268;2023-05-13T05:41:27;1.48;;;0.90;;
42246;SDS011;27913;42.722;23.268;2023-05-13T05:43:52;1.95;;;1.00;;
42246;SDS011;27913;42.722;23.268;2023-05-13T05:46:18;2.03;;;1.38;;
42246;SDS011;27913;42.722;23.268;2023-05-13T05:48:43;2.55;;;1.30;;
42246;SDS011;27913;42.722;23.268;2023-05-13T05:51:09;5.25;;;1.48;;
42246;SDS011;27913;42.722;23.268;2023-05-13T05:53:34;2.50;;;1.30;;
42246;SDS011;27913;42.722;23.268;2023-05-13T05:56:02;1.90;;;0.95;;
42246;SDS011;27913;42.722;23.268;2023-05-13T05:58:28;2.00;;;1.13;;
42246;SDS011;27913;42.722;23.268;2023-05-13T06:00:53;1.50;;;0.98;;
42246;SDS011;27913;42.722;23.268;2023-05-13T06:03:19;1.40;;;0.85;;
42246;SDS011;27913;42.722;23.268;2023-05-13T06:05:45;1.73;;;0.80;;
42246;SDS011;27913;42.722;23.268;2023-05-13T06:08:11;3.20;;;1.98;;
42246;SDS011;27913;42.722;23.268;2023-05-13T06:10:37;2.95;;;1.35;;
42246;SDS011;27913;42.722;23.268;2023-05-13T06:13:02;2.53;;;1.30;;
42246;SDS011;27913;42.722;23.268;2023-05-13T06:15:28;1.83;;;0.90;;
42246;SDS011;27913;42.722;23.268;2023-05-13T06:17:54;4.65;;;1.88;;
42246;SDS011;27913;42.722;23.268;2023-05-13T06:20:20;2.90;;;1.10;;
42246;SDS011;27913;42.722;23.268;2023-05-13T06:22:46;1.85;;;1.02;;
42246;SDS011;27913;42.722;23.268;2023-05-13T06:25:12;1.17;;;0.82;;
42246;SDS011;27913;42.722;23.268;2023-05-13T06:27:37;1.38;;;0.85;;
42246;SDS011;27913;42.722;23.268;2023-05-13T06:30:03;1.90;;;1.23;;
42246;SDS011;27913;42.722;23.268;2023-05-13T06:32:29;6.40;;;2.58;;
42246;SDS011;27913;42.722;23.268;2023-05-13T06:34:55;2.33;;;0.85;;
42246;SDS011;27913;42.722;23.268;2023-05-13T06:37:20;2.30;;;1.33;;
42246;SDS011;27913;42.722;23.268;2023-05-13T06:39:46;2.35;;;1.08;;
42246;SDS011;27913;42.722;23.268;2023-05-13T06:42:11;1.90;;;1.10;;
42246;SDS011;27913;42.722;23.268;2023-05-13T06:44:37;2.58;;;1.17;;
42246;SDS011;27913;42.722;23.268;2023-05-13T06:47:03;2.85;;;1.38;;
42246;SDS011;27913;42.722;23.268;2023-05-13T06:49:29;5.35;;;1.13;;
42246;SDS011;27913;42.722;23.268;2023-05-13T06:51:56;3.85;;;1.05;;
42246;SDS011;27913;42.722;23.268;2023-05-13T06:54:22;1.35;;;0.70;;
42246;SDS011;27913;42.722;23.268;2023-05-13T06:56:47;1.67;;;0.88;;
42246;SDS011;27913;42.722;23.268;2023-05-13T06:59:13;3.00;;;1.27;;
42246;SDS011;27913;42.722;23.268;2023-05-13T07:01:39;1.58;;;0.88;;
42246;SDS011;27913;42.722;23.268;2023-05-13T07:04:06;3.00;;;1.02;;
42246;SDS011;27913;42.722;23.268;2023-05-13T07:06:32;13.05;;;1.20;;
42246;SDS011;27913;42.722;23.268;2023-05-13T07:08:57;1.98;;;0.88;;
42246;SDS011;27913;42.722;23.268;2023-05-13T07:11:23;1.23;;;0.70;;
42246;SDS011;27913;42.722;23.268;2023-05-13T07:13:48;1.35;;;0.75;;
42246;SDS011;27913;42.722;23.268;2023-05-13T07:16:14;1.98;;;1.15;;
42246;SDS011;27913;42.722;23.268;2023-05-13T07:18:39;2.08;;;0.95;;
42246;SDS011;27913;42.722;23.268;2023-05-13T07:21:05;1.00;;;0.70;;
42246;SDS011;27913;42.722;23.268;2023-05-13T07:23:30;1.58;;;0.90;;
42246;SDS011;27913;42.722;23.268;2023-05-13T07:25:56;1.17;;;0.68;;
42246;SDS011;27913;42.722;23.268;2023-05-13T07:28:22;1.67;;;0.73;;
42246;SDS011;27913;42.722;23.268;2023-05-13T07:30:47;1.08;;;0.80;;
42246;SDS011;27913;42.722;23.268;2023-05-13T07:33:13;2.45;;;0.98;;
42246;SDS011;27913;42.722;23.268;2023-05-13T07:35:38;2.33;;;1.10;;
42246;SDS011;27913;42.722;23.268;2023-05-13T07:38:05;3.05;;;1.30;;
42246;SDS011;27913;42.722;23.268;2023-05-13T07:40:32;2.05;;;1.02;;
42246;SDS011;27913;42.722;23.268;2023-05-13T07:42:58;1.30;;;0.75;;
42246;SDS011;27913;42.722;23.268;2023-05-13T07:45:24;2.47;;;0.95;;
42246;SDS011;27913;42.722;23.268;2023-05-13T07:47:49;1.95;;;1.10;;
42246;SDS011;27913;42.722;23.268;2023-05-13T07:50:15;2.13;;;1.25;;
42246;SDS011;27913;42.722;23.268;2023-05-13T07:52:40;2.90;;;1.63;;
42246;SDS011;27913;42.722;23.268;2023-05-13T07:55:06;1.60;;;0.90;;
42246;SDS011;27913;42.722;23.268;2023-05-13T07:57:34;3.67;;;1.50;;
42246;SDS011;27913;42.722;23.268;2023-05-13T08:00:00;3.28;;;1.55;;
42246;SDS011;27913;42.722;23.268;2023-05-13T08:02:26;1.50;;;0.80;;
42246;SDS011;27913;42.722;23.268;2023-05-13T08:04:51;2.05;;;1.30;;
42246;SDS011;27913;42.722;23.268;2023-05-13T08:07:17;3.97;;;1.00;;
42246;SDS011;27913;42.722;23.268;2023-05-13T08:09:42;2.35;;;1.20;;
42246;SDS011;27913;42.722;23.268;2023-05-13T08:12:08;3.40;;;1.25;;
42246;SDS011;27913;42.722;23.268;2023-05-13T08:14:34;1.83;;;1.30;;
42246;SDS011;27913;42.722;23.268;2023-05-13T08:17:00;2.58;;;1.10;;
42246;SDS011;27913;42.722;23.268;2023-05-13T08:19:25;2.03;;;1.25;;
42246;SDS011;27913;42.722;23.268;2023-05-13T08:21:51;1.42;;;0.85;;
42246;SDS011;27913;42.722;23.268;2023-05-13T08:24:16;2.03;;;1.30;;
42246;SDS011;27913;42.722;23.268;2023-05-13T08:26:42;1.60;;;1.08;;
42246;SDS011;27913;42.722;23.268;2023-05-13T08:29:07;2.90;;;1.33;;
42246;SDS011;27913;42.722;23.268;2023-05-13T08:31:36;2.08;;;1.20;;
42246;SDS011;27913;42.722;23.268;2023-05-13T08:34:02;2.15;;;1.20;;
42246;SDS011;27913;42.722;23.268;2023-05-13T08:36:28;3.42;;;1.65;;
42246;SDS011;27913;42.722;23.268;2023-05-13T08:38:53;1.60;;;1.10;;
42246;SDS011;27913;42.722;23.268;2023-05-13T08:41:19;2.35;;;1.40;;
42246;SDS011;27913;42.722;23.268;2023-05-13T08:43:46;1.65;;;0.93;;
42246;SDS011;27913;42.722;23.268;2023-05-13T08:46:13;2.03;;;1.13;;
42246;SDS011;27913;42.722;23.268;2023-05-13T08:48:41;3.35;;;1.45;;
42246;SDS011;27913;42.722;23.268;2023-05-13T08:51:07;3.17;;;1.80;;
42246;SDS011;27913;42.722;23.268;2023-05-13T08:53:33;2.55;;;1.58;;
42246;SDS011;27913;42.722;23.268;2023-05-13T08:56:00;4.82;;;2.05;;
42246;SDS011;27913;42.722;23.268;2023-05-13T08:58:26;4.78;;;2.13;;
42246;SDS011;27913;42.722;23.268;2023-05-13T09:00:52;2.22;;;1.25;;
42246;SDS011;27913;42.722;23.268;2023-05-13T09:03:18;2.30;;;1.42;;
42246;SDS011;27913;42.722;23.268;2023-05-13T09:05:45;6.32;;;1.33;;
42246;SDS011;27913;42.722;23.268;2023-05-13T09:08:11;5.25;;;2.60;;
42246;SDS011;27913;42.722;23.268;2023-05-13T09:10:36;3.58;;;2.08;;
42246;SDS011;27913;42.722;23.268;2023-05-13T09:13:02;2.38;;;1.60;;
42246;SDS011;27913;42.722;23.268;2023-05-13T09:15:28;2.75;;;1.48;;
42246;SDS011;27913;42.722;23.268;2023-05-13T09:17:55;2.30;;;1.38;;
42246;SDS011;27913;42.722;23.268;2023-05-13T09:20:23;3.05;;;1.67;;
42246;SDS011;27913;42.722;23.268;2023-05-13T09:22:54;3.08;;;1.83;;
42246;SDS011;27913;42.722;23.268;2023-05-13T09:25:26;3.58;;;2.22;;
42246;SDS011;27913;42.722;23.268;2023-05-13T09:27:52;2.78;;;1.77;;
42246;SDS011;27913;42.722;23.268;2023-05-13T09:30:22;4.32;;;2.28;;
42246;SDS011;27913;42.722;23.268;2023-05-13T09:33:02;3.95;;;2.28;;
42246;SDS011;27913;42.722;23.268;2023-05-13T09:35:38;5.75;;;3.05;;
42246;SDS011;27913;42.722;23.268;2023-05-13T09:38:15;3.22;;;2.13;;
42246;SDS011;27913;42.722;23.268;2023-05-13T09:40:48;4.90;;;2.30;;
42246;SDS011;27913;42.722;23.268;2023-05-13T09:43:17;3.72;;;2.20;;
42246;SDS011;27913;42.722;23.268;2023-05-13T09:45:45;5.93;;;3.28;;
42246;SDS011;27913;42.722;23.268;2023-05-13T09:48:10;5.63;;;2.33;;
42246;SDS011;27913;42.722;23.268;2023-05-13T09:50:47;6.85;;;2.80;;
42246;SDS011;27913;42.722;23.268;2023-05-13T09:53:14;3.47;;;2.10;;
42246;SDS011;27913;42.722;23.268;2023-05-13T09:55:44;5.38;;;2.72;;
42246;SDS011;27913;42.722;23.268;2023-05-13T09:58:13;4.88;;;2.80;;
42246;SDS011;27913;42.722;23.268;2023-05-13T10:00:40;4.35;;;2.55;;
42246;SDS011;27913;42.722;23.268;2023-05-13T10:03:07;14.38;;;6.78;;
42246;SDS011;27913;42.722;23.268;2023-05-13T10:05:33;4.65;;;2.50;;
42246;SDS011;27913;42.722;23.268;2023-05-13T10:07:59;2.97;;;1.88;;
42246;SDS011;27913;42.722;23.268;2023-05-13T10:10:26;4.07;;;2.00;;
42246;SDS011;27913;42.722;23.268;2023-05-13T10:12:56;5.30;;;2.28;;
42246;SDS011;27913;42.722;23.268;2023-05-13T10:15:27;2.35;;;1.45;;
42246;SDS011;27913;42.722;23.268;2023-05-13T10:17:53;4.72;;;2.05;;
42246;SDS011;27913;42.722;23.268;2023-05-13T10:20:20;2.33;;;1.38;;
42246;SDS011;27913;42.722;23.268;2023-05-13T10:22:46;2.90;;;1.90;;
42246;SDS011;27913;42.722;23.268;2023-05-13T10:25:15;6.93;;;2.63;;
42246;SDS011;27913;42.722;23.268;2023-05-13T10:27:40;4.20;;;2.63;;
42246;SDS011;27913;42.722;23.268;2023-05-13T10:30:07;6.53;;;3.03;;
42246;SDS011;27913;42.722;23.268;2023-05-13T10:32:34;3.80;;;2.20;;
42246;SDS011;27913;42.722;23.268;2023-05-13T10:43:15;3.35;;;2.17;;
42246;SDS011;27913;42.722;23.268;2023-05-13T10:45:43;5.82;;;2.45;;
42246;SDS011;27913;42.722;23.268;2023-05-13T10:48:10;2.67;;;1.83;;
42246;SDS011;27913;42.722;23.268;2023-05-13T10:50:37;5.63;;;2.38;;
42246;SDS011;27913;42.722;23.268;2023-05-13T10:53:07;10.15;;;2.63;;
42246;SDS011;27913;42.722;23.268;2023-05-13T10:55:44;2.97;;;1.88;;
42246;SDS011;27913;42.722;23.268;2023-05-13T10:58:11;3.08;;;2.30;;
42246;SDS011;27913;42.722;23.268;2023-05-13T11:00:37;4.85;;;2.05;;
42246;SDS011;27913;42.722;23.268;2023-05-13T11:03:10;11.77;;;2.72;;
42246;SDS011;27913;42.722;23.268;2023-05-13T11:05:37;4.70;;;2.67;;
42246;SDS011;27913;42.722;23.268;2023-05-13T11:08:04;5.70;;;3.40;;
42246;SDS011;27913;42.722;23.268;2023-05-13T11:10:30;3.70;;;2.25;;
42246;SDS011;27913;42.722;23.268;2023-05-13T11:15:43;7.00;;;2.30;;
42246;SDS011;27913;42.722;23.268;2023-05-13T11:18:16;3.88;;;2.10;;
42246;SDS011;27913;42.722;23.268;2023-05-13T11:20:53;3.78;;;2.40;;
42246;SDS011;27913;42.722;23.268;2023-05-13T11:23:20;3.95;;;1.77;;
42246;SDS011;27913;42.722;23.268;2023-05-13T11:25:46;4.18;;;2.10;;
42246;SDS011;27913;42.722;23.268;2023-05-13T11:28:56;3.65;;;1.95;;
42246;SDS011;27913;42.722;23.268;2023-05-13T11:31:24;4.38;;;2.50;;
42246;SDS011;27913;42.722;23.268;2023-05-13T11:34:07;3.92;;;2.15;;
42246;SDS011;27913;42.722;23.268;2023-05-13T13:11:57;3.22;;;1.65;;
42246;SDS011;27913;42.722;23.268;2023-05-13T13:14:22;2.42;;;1.40;;
42246;SDS011;27913;42.722;23.268;2023-05-13T13:16:50;2.67;;;1.58;;
42246;SDS011;27913;42.722;23.268;2023-05-13T13:19:15;3.55;;;1.77;;
42246;SDS011;27913;42.722;23.268;2023-05-13T13:21:40;2.45;;;1.30;;
42246;SDS011;27913;42.722;23.268;2023-05-13T13:24:06;5.35;;;3.17;;
42246;SDS011;27913;42.722;23.268;2023-05-13T13:26:32;2.78;;;1.80;;
42246;SDS011;27913;42.722;23.268;2023-05-13T13:28:58;4.32;;;2.00;;
42246;SDS011;27913;42.722;23.268;2023-05-13T13:31:23;2.35;;;1.45;;
42246;SDS011;27913;42.722;23.268;2023-05-13T13:33:49;4.35;;;2.53;;
42246;SDS011;27913;42.722;23.268;2023-05-13T13:36:14;8.95;;;2.03;;
42246;SDS011;27913;42.722;23.268;2023-05-13T13:38:40;2.35;;;1.40;;
42246;SDS011;27913;42.722;23.268;2023-05-13T13:41:06;3.67;;;1.40;;
42246;SDS011;27913;42.722;23.268;2023-05-13T13:43:31;2.30;;;1.58;;
42246;SDS011;27913;42.722;23.268;2023-05-13T13:45:57;5.82;;;2.40;;
42246;SDS011;27913;42.722;23.268;2023-05-13T13:48:22;2.80;;;1.45;;
42246;SDS011;27913;42.722;23.268;2023-05-13T13:50:49;4.00;;;2.10;;
42246;SDS011;27913;42.722;23.268;2023-05-13T13:53:14;2.72;;;1.45;;
42246;SDS011;27913;42.722;23.268;2023-05-13T13:55:40;3.10;;;1.75;;
42246;SDS011;27913;42.722;23.268;2023-05-13T13:58:05;2.90;;;1.63;;
42246;SDS011;27913;42.722;23.268;2023-05-13T14:00:31;3.47;;;1.85;;
42246;SDS011;27913;42.722;23.268;2023-05-13T14:02:56;3.22;;;1.60;;
42246;SDS011;27913;42.722;23.268;2023-05-13T14:05:22;8.63;;;1.40;;
42246;SDS011;27913;42.722;23.268;2023-05-13T14:07:47;1.98;;;1.00;;
42246;SDS011;27913;42.722;23.268;2023-05-13T14:10:15;2.20;;;1.52;;
42246;SDS011;27913;42.722;23.268;2023-05-13T14:12:41;2.97;;;1.88;;
42246;SDS011;27913;42.722;23.268;2023-05-13T14:15:06;2.85;;;1.70;;
42246;SDS011;27913;42.722;23.268;2023-05-13T14:17:32;3.58;;;2.05;;
42246;SDS011;27913;42.722;23.268;2023-05-13T14:19:58;4.35;;;2.53;;
42246;SDS011;27913;42.722;23.268;2023-05-13T14:22:23;2.67;;;1.60;;
42246;SDS011;27913;42.722;23.268;2023-05-13T14:24:49;2.47;;;1.20;;
42246;SDS011;27913;42.722;23.268;2023-05-13T14:27:16;2.20;;;1.33;;
42246;SDS011;27913;42.722;23.268;2023-05-13T14:29:42;3.63;;;1.85;;
42246;SDS011;27913;42.722;23.268;2023-05-13T14:32:10;2.17;;;1.42;;
42246;SDS011;27913;42.722;23.268;2023-05-13T14:34:35;3.35;;;1.25;;
42246;SDS011;27913;42.722;23.268;2023-05-13T14:37:00;1.35;;;1.10;;
42246;SDS011;27913;42.722;23.268;2023-05-13T14:39:26;8.32;;;1.90;;
42246;SDS011;27913;42.722;23.268;2023-05-13T14:41:52;2.80;;;1.40;;
42246;SDS011;27913;42.722;23.268;2023-05-13T14:44:17;2.50;;;1.30;;
42246;SDS011;27913;42.722;23.268;2023-05-13T14:46:43;2.13;;;1.42;;
42246;SDS011;27913;42.722;23.268;2023-05-13T14:49:08;3.78;;;1.85;;
42246;SDS011;27913;42.722;23.268;2023-05-13T14:51:34;2.60;;;1.60;;
42246;SDS011;27913;42.722;23.268;2023-05-13T14:53:59;4.13;;;2.05;;
42246;SDS011;27913;42.722;23.268;2023-05-13T14:56:26;2.38;;;1.40;;
42246;SDS011;27913;42.722;23.268;2023-05-13T14:58:52;3.17;;;1.88;;
42246;SDS011;27913;42.722;23.268;2023-05-13T15:01:17;3.05;;;1.30;;
42246;SDS011;27913;42.722;23.268;2023-05-13T15:03:43;2.15;;;1.23;;
42246;SDS011;27913;42.722;23.268;2023-05-13T15:06:09;1.42;;;1.15;;
42246;SDS011;27913;42.722;23.268;2023-05-13T15:08:35;2.13;;;1.52;;
42246;SDS011;27913;42.722;23.268;2023-05-13T15:11:01;2.47;;;1.50;;
42246;SDS011;27913;42.722;23.268;2023-05-13T15:13:27;2.55;;;1.55;;
42246;SDS011;27913;42.722;23.268;2023-05-13T15:15:56;3.22;;;1.98;;
42246;SDS011;27913;42.722;23.268;2023-05-13T15:18:22;3.90;;;1.98;;
42246;SDS011;27913;42.722;23.268;2023-05-13T15:20:47;2.38;;;1.38;;
42246;SDS011;27913;42.722;23.268;2023-05-13T15:23:13;2.88;;;1.42;;
42246;SDS011;27913;42.722;23.268;2023-05-13T15:25:38;3.75;;;1.65;;
42246;SDS011;27913;42.722;23.268;2023-05-13T15:28:04;1.90;;;1.20;;
42246;SDS011;27913;42.722;23.268;2023-05-13T15:30:29;2.25;;;1.20;;
42246;SDS011;27913;42.722;23.268;2023-05-13T15:32:55;3.13;;;1.42;;
42246;SDS011;27913;42.722;23.268;2023-05-13T15:35:20;2.80;;;1.60;;
42246;SDS011;27913;42.722;23.268;2023-05-13T15:37:46;3.15;;;2.25;;
42246;SDS011;27913;42.722;23.268;2023-05-13T15:40:11;2.47;;;1.38;;
42246;SDS011;27913;42.722;23.268;2023-05-13T15:42:38;2.05;;;1.55;;
42246;SDS011;27913;42.722;23.268;2023-05-13T15:45:04;4.28;;;2.22;;
42246;SDS011;27913;42.722;23.268;2023-05-13T15:47:29;3.38;;;1.90;;
42246;SDS011;27913;42.722;23.268;2023-05-13T15:49:55;4.50;;;2.78;;
42246;SDS011;27913;42.722;23.268;2023-05-13T15:52:20;3.58;;;1.92;;
42246;SDS011;27913;42.722;23.268;2023-05-13T15:54:46;0.90;;;0.73;;
42246;SDS011;27913;42.722;23.268;2023-05-13T15:57:11;8.15;;;2.85;;
42246;SDS011;27913;42.722;23.268;2023-05-13T15:59:37;1.15;;;0.82;;
42246;SDS011;27913;42.722;23.268;2023-05-13T16:02:02;3.50;;;1.42;;
42246;SDS011;27913;42.722;23.268;2023-05-13T16:04:28;1.40;;;0.98;;
42246;SDS011;27913;42.722;23.268;2023-05-13T16:06:53;2.17;;;1.35;;
42246;SDS011;27913;42.722;23.268;2023-05-13T16:09:19;2.78;;;1.70;;
42246;SDS011;27913;42.722;23.268;2023-05-13T16:11:44;2.50;;;1.42;;
42246;SDS011;27913;42.722;23.268;2023-05-13T16:14:10;2.85;;;1.00;;
42246;SDS011;27913;42.722;23.268;2023-05-13T16:16:36;3.60;;;1.63;;
42246;SDS011;27913;42.722;23.268;2023-05-13T16:19:01;5.30;;;2.45;;
42246;SDS011;27913;42.722;23.268;2023-05-13T16:21:27;1.80;;;0.90;;